SETU/TUA METAR and TAF weather

Enter ICAO airport designator
Station Type Date Time Source
SETU METAR 2019/07/19 21:00 UTC NOAA

SETU 192100Z 12010G20KT 9999 BKN020 14/08 Q1030


Station Type Date Time Source
SETU Decoded METAR 2019/07/19 21:00 UTC NOAA

Tulcan / El Rosal, Ecuador (SETU) 00-49N 077-42W
Jul 19, 2019 - 05:00 PM EDT / 2019.07.19 2100 UTC
Wind: from the ESE (120 degrees) at 12 MPH (10 KT) gusting to 23 MPH (20 KT):0
Visibility: greater than 7 mile(s):0
Sky conditions: mostly cloudy
Temperature: 57 F (14 C)
Dew Point: 46 F (8 C)
Relative Humidity: 67%
Pressure (altimeter): 30.42 in. Hg (1030 hPa)
ob: SETU 192100Z 12010G20KT 9999 BKN020 14/08 Q1030
cycle: 21

Station Type Date Time Source
SETU TAF UTC NOAA

Error!

Example: see airport list